createdAt,value
2024-03-04T00:00:24.073Z,8.22
2024-03-04T00:01:25.967Z,8.24
2024-03-04T00:02:28.197Z,8.20
2024-03-04T00:03:30.083Z,8.17
2024-03-04T00:04:31.978Z,8.13
2024-03-04T00:05:36.919Z,8.16
2024-03-04T00:06:38.786Z,8.11
2024-03-04T00:07:40.602Z,8.05
2024-03-04T00:08:42.577Z,7.99
2024-03-04T00:09:44.303Z,8.03
2024-03-04T00:10:46.358Z,8.06
2024-03-04T00:11:48.312Z,8.12
2024-03-04T00:12:50.207Z,8.15
2024-03-04T00:13:52.153Z,8.15
2024-03-04T00:14:54.118Z,8.07
2024-03-04T00:15:55.972Z,8.02
2024-03-04T00:16:57.868Z,8.00
2024-03-04T00:17:59.882Z,7.99
2024-03-04T00:19:01.831Z,8.04
2024-03-04T00:20:08.206Z,8.04
2024-03-04T00:21:10.307Z,8.05
2024-03-04T00:22:12.115Z,8.07
2024-03-04T00:23:13.981Z,8.05
2024-03-04T00:24:15.835Z,8.04
2024-03-04T00:25:17.880Z,8.00
2024-03-04T00:26:19.661Z,7.97
2024-03-04T00:27:21.633Z,7.96
2024-03-04T00:28:23.483Z,7.95
2024-03-04T00:29:25.398Z,7.95
2024-03-04T00:30:27.099Z,7.93
2024-03-04T00:31:29.280Z,7.93
2024-03-04T00:32:31.290Z,7.91
2024-03-04T00:33:33.237Z,7.91
2024-03-04T00:34:35.050Z,7.97
2024-03-04T00:35:37.060Z,8.00
2024-03-04T00:36:38.858Z,8.03
2024-03-04T00:37:42.774Z,8.04
2024-03-04T00:38:44.633Z,7.99
2024-03-04T00:39:47.856Z,7.93
2024-03-04T00:40:50.699Z,7.90
2024-03-04T00:41:52.471Z,7.86
2024-03-04T00:42:54.818Z,7.87
2024-03-04T00:43:56.736Z,7.87
2024-03-04T00:44:58.805Z,7.82
2024-03-04T00:46:00.788Z,7.79
2024-03-04T00:47:02.708Z,7.74
2024-03-04T00:48:04.716Z,7.72
2024-03-04T00:49:06.550Z,7.72
2024-03-04T00:50:10.032Z,7.76
2024-03-04T00:51:15.067Z,7.75
2024-03-04T00:52:18.739Z,7.77
2024-03-04T00:53:20.467Z,7.75
2024-03-04T00:54:22.320Z,7.77
2024-03-04T00:55:24.201Z,7.82
2024-03-04T00:56:25.942Z,7.80
2024-03-04T00:57:30.878Z,7.78
2024-03-04T00:58:33.034Z,7.77
2024-03-04T00:59:35.182Z,7.79
2024-03-04T01:00:37.042Z,7.76
2024-03-04T01:01:39.896Z,7.73
2024-03-04T01:02:45.669Z,7.77
2024-03-04T01:03:47.480Z,7.79
2024-03-04T01:04:49.952Z,7.80
2024-03-04T01:05:51.938Z,7.82
2024-03-04T01:06:57.536Z,7.77
2024-03-04T01:07:59.301Z,7.75
2024-03-04T01:09:01.047Z,7.79
2024-03-04T01:10:02.837Z,7.81
2024-03-04T01:11:04.925Z,7.81
2024-03-04T01:12:06.864Z,7.80
2024-03-04T01:13:09.183Z,7.79
2024-03-04T01:14:11.129Z,7.82
2024-03-04T01:15:12.923Z,7.85
2024-03-04T01:16:14.817Z,7.87
2024-03-04T01:17:18.489Z,7.84
2024-03-04T01:18:21.980Z,7.72
2024-03-04T01:19:25.260Z,7.67
2024-03-04T01:20:28.202Z,7.69
2024-03-04T01:21:30.068Z,7.66
2024-03-04T01:22:31.948Z,7.65
2024-03-04T01:23:34.292Z,7.48
2024-03-04T01:24:36.519Z,7.49
2024-03-04T01:25:38.347Z,7.48
2024-03-04T01:26:40.175Z,7.49
2024-03-04T01:27:43.658Z,7.45
2024-03-04T01:28:49.132Z,7.41
2024-03-04T01:29:50.907Z,7.37
2024-03-04T01:30:54.818Z,7.41
2024-03-04T01:31:56.594Z,7.46
2024-03-04T01:33:00.834Z,7.48
2024-03-04T01:34:04.485Z,7.46
2024-03-04T01:35:09.121Z,7.42
2024-03-04T01:36:11.001Z,7.45
2024-03-04T01:37:12.856Z,7.51
2024-03-04T01:38:15.382Z,7.45
2024-03-04T01:39:17.225Z,7.37
2024-03-04T01:40:19.244Z,7.38
2024-03-04T01:41:20.964Z,7.30
2024-03-04T01:42:22.777Z,7.19
2024-03-04T01:43:24.607Z,7.22
2024-03-04T01:44:31.436Z,7.26
2024-03-04T01:45:34.092Z,7.24
2024-03-04T01:46:37.261Z,7.21
2024-03-04T01:47:39.159Z,7.26
2024-03-04T01:48:41.756Z,7.28
2024-03-04T01:49:43.863Z,7.12
2024-03-04T01:50:46.448Z,6.99
2024-03-04T01:51:48.240Z,6.96
2024-03-04T01:52:50.895Z,6.99
2024-03-04T01:53:52.838Z,6.91
2024-03-04T01:54:56.557Z,6.92
2024-03-04T01:56:04.206Z,6.90
2024-03-04T01:57:07.921Z,6.96
2024-03-04T01:58:13.478Z,7.03
2024-03-04T01:59:15.970Z,7.07
2024-03-04T02:00:18.709Z,7.13
2024-03-04T02:01:20.863Z,7.15
2024-03-04T02:02:22.859Z,7.19
2024-03-04T02:03:24.612Z,7.22
2024-03-04T02:04:26.729Z,7.27
2024-03-04T02:05:28.849Z,7.34
2024-03-04T02:06:30.680Z,7.36
2024-03-04T02:07:35.529Z,7.36
2024-03-04T02:08:37.995Z,7.35
2024-03-04T02:09:40.607Z,7.26
2024-03-04T02:10:42.385Z,7.27
2024-03-04T02:11:45.360Z,7.28
2024-03-04T02:12:48.746Z,7.27
2024-03-04T02:13:50.923Z,7.25
2024-03-04T02:14:53.558Z,7.29
2024-03-04T02:15:55.472Z,7.32
2024-03-04T02:16:57.278Z,7.32
2024-03-04T02:17:59.705Z,7.32
2024-03-04T02:19:02.280Z,7.34
2024-03-04T02:20:05.772Z,7.35
2024-03-04T02:21:08.650Z,7.35
2024-03-04T02:22:12.411Z,7.25
2024-03-04T02:23:14.596Z,7.12
2024-03-04T02:24:16.580Z,6.97
2024-03-04T02:25:20.588Z,6.94
2024-03-04T02:26:22.355Z,6.94
2024-03-04T02:27:24.635Z,7.01
2024-03-04T02:28:29.138Z,7.01
2024-03-04T02:29:31.070Z,6.95
2024-03-04T02:30:33.771Z,6.94
2024-03-04T02:31:35.650Z,6.99
2024-03-04T02:32:37.559Z,7.00
2024-03-04T02:33:43.538Z,6.97
2024-03-04T02:34:48.492Z,7.00
2024-03-04T02:35:51.207Z,7.05
2024-03-04T02:36:53.257Z,7.07
2024-03-04T02:37:55.867Z,7.03
2024-03-04T02:38:58.280Z,7.01
2024-03-04T02:40:00.853Z,6.93
2024-03-04T02:41:05.261Z,6.83
2024-03-04T02:42:09.687Z,6.81
2024-03-04T02:43:12.962Z,6.72
2024-03-04T02:44:15.053Z,6.63
2024-03-04T02:45:16.784Z,6.59
2024-03-04T02:46:20.203Z,6.60
2024-03-04T02:47:21.952Z,6.65
2024-03-04T02:48:23.768Z,6.66
2024-03-04T02:49:25.857Z,6.62
2024-03-04T02:50:30.995Z,6.65
2024-03-04T02:51:32.863Z,6.57
2024-03-04T02:52:35.281Z,6.55
2024-03-04T02:53:37.236Z,6.55
2024-03-04T02:54:39.108Z,6.47
2024-03-04T02:55:41.025Z,6.34
2024-03-04T02:56:43.132Z,6.28
2024-03-04T02:57:44.860Z,6.28
2024-03-04T02:58:46.687Z,6.29
2024-03-04T02:59:48.497Z,6.32
2024-03-04T03:00:50.375Z,6.33
2024-03-04T03:01:52.118Z,6.32
2024-03-04T03:02:53.974Z,6.35
2024-03-04T03:03:55.867Z,6.40
2024-03-04T03:04:57.575Z,6.39
2024-03-04T03:05:59.507Z,6.37
2024-03-04T03:07:02.140Z,6.35
2024-03-04T03:08:04.012Z,6.22
2024-03-04T03:09:05.885Z,6.21
2024-03-04T03:10:07.672Z,6.24
2024-03-04T03:11:09.559Z,6.16
2024-03-04T03:12:14.352Z,6.19
2024-03-04T03:13:16.122Z,6.24
2024-03-04T03:14:17.969Z,6.23
2024-03-04T03:15:19.826Z,6.23
2024-03-04T03:16:22.320Z,6.28
2024-03-04T03:17:27.436Z,6.27
2024-03-04T03:18:29.292Z,6.30
2024-03-04T03:19:31.200Z,6.32
2024-03-04T03:20:33.007Z,6.35
2024-03-04T03:21:35.020Z,6.31
2024-03-04T03:22:36.822Z,6.26
2024-03-04T03:23:38.682Z,6.24
2024-03-04T03:24:42.132Z,6.28
2024-03-04T03:25:43.951Z,6.22
2024-03-04T03:26:46.180Z,6.12
2024-03-04T03:27:47.997Z,6.07
2024-03-04T03:28:50.068Z,6.16
2024-03-04T03:29:51.769Z,6.18
2024-03-04T03:30:53.546Z,6.21
2024-03-04T03:31:55.328Z,6.29
2024-03-04T03:32:57.162Z,6.31
2024-03-04T03:33:59.078Z,6.34
2024-03-04T03:35:01.264Z,6.35
2024-03-04T03:36:03.998Z,6.32
2024-03-04T03:37:05.896Z,6.32
2024-03-04T03:38:07.643Z,6.31
2024-03-04T03:39:11.265Z,6.32
2024-03-04T03:40:13.509Z,6.29
2024-03-04T03:41:15.627Z,6.25
2024-03-04T03:42:17.392Z,6.20
2024-03-04T03:43:19.235Z,6.16
2024-03-04T03:44:21.194Z,6.13
2024-03-04T03:45:22.919Z,6.14
2024-03-04T03:46:24.659Z,6.12
2024-03-04T03:47:26.586Z,6.10
2024-03-04T03:48:28.679Z,6.05
2024-03-04T03:49:30.520Z,6.04
2024-03-04T03:50:32.417Z,6.11
2024-03-04T03:51:34.162Z,6.11
2024-03-04T03:52:36.659Z,6.13
2024-03-04T03:53:38.496Z,6.08
2024-03-04T03:54:40.298Z,6.05
2024-03-04T03:55:42.194Z,6.00
2024-03-04T03:56:44.034Z,6.01
2024-03-04T03:57:55.206Z,6.05
2024-03-04T03:59:01.063Z,6.00
2024-03-04T04:00:03.846Z,5.99
2024-03-04T04:01:06.384Z,6.05
2024-03-04T04:02:09.164Z,6.02
2024-03-04T04:03:11.325Z,5.94
2024-03-04T04:04:13.068Z,5.98
2024-03-04T04:05:14.779Z,6.00
2024-03-04T04:06:16.635Z,5.99
2024-03-04T04:07:19.418Z,5.88
2024-03-04T04:08:21.331Z,5.83
2024-03-04T04:09:23.163Z,5.88
2024-03-04T04:10:25.684Z,5.92
2024-03-04T04:11:27.595Z,5.91
2024-03-04T04:12:29.289Z,5.93
2024-03-04T04:13:31.944Z,5.94
2024-03-04T04:14:33.873Z,5.94
2024-03-04T04:15:35.768Z,5.97
2024-03-04T04:16:37.937Z,5.90
2024-03-04T04:17:39.873Z,5.89
2024-03-04T04:18:42.171Z,5.85
2024-03-04T04:19:44.043Z,5.75
2024-03-04T04:20:49.287Z,5.72
2024-03-04T04:21:51.385Z,5.70
2024-03-04T04:22:53.282Z,5.82
2024-03-04T04:23:55.038Z,5.84
2024-03-04T04:24:57.097Z,5.85
2024-03-04T04:25:58.992Z,5.84
2024-03-04T04:27:00.722Z,5.80
2024-03-04T04:28:02.671Z,5.78
2024-03-04T04:29:04.535Z,5.78
2024-03-04T04:30:07.816Z,5.87
2024-03-04T04:31:18.984Z,5.92
2024-03-04T04:32:20.819Z,5.93
2024-03-04T04:33:24.205Z,5.94
2024-03-04T04:34:26.418Z,5.98
2024-03-04T04:35:28.381Z,6.02
2024-03-04T04:36:30.194Z,6.03
2024-03-04T04:37:32.083Z,6.05
2024-03-04T04:38:33.911Z,6.08
2024-03-04T04:39:35.701Z,5.99
2024-03-04T04:40:39.121Z,5.85
2024-03-04T04:41:41.259Z,5.72
2024-03-04T04:42:43.282Z,5.64
2024-03-04T04:43:45.178Z,5.63
2024-03-04T04:44:47.460Z,5.57
2024-03-04T04:45:50.511Z,5.62
2024-03-04T04:46:52.396Z,5.68
2024-03-04T04:47:55.375Z,5.75
2024-03-04T04:48:57.361Z,5.74
2024-03-04T04:50:00.117Z,5.74
2024-03-04T04:51:01.972Z,5.76
2024-03-04T04:52:04.545Z,5.72
2024-03-04T04:53:06.374Z,5.76
2024-03-04T04:54:08.254Z,5.85
2024-03-04T04:55:10.172Z,5.86
2024-03-04T04:56:16.874Z,5.82
2024-03-04T04:57:21.259Z,5.81
2024-03-04T04:58:23.795Z,5.73
2024-03-04T04:59:25.597Z,5.68
2024-03-04T05:00:27.442Z,5.71
2024-03-04T05:01:30.017Z,5.71
2024-03-04T05:02:32.177Z,5.77
2024-03-04T05:03:48.179Z,5.73
2024-03-04T05:04:58.359Z,5.71
2024-03-04T05:06:01.773Z,5.69
2024-03-04T05:07:03.697Z,5.72
2024-03-04T05:08:06.731Z,5.64
2024-03-04T05:09:09.849Z,5.67
2024-03-04T05:10:11.637Z,5.68
2024-03-04T05:11:13.677Z,5.63
2024-03-04T05:12:15.977Z,5.65
2024-03-04T05:13:17.759Z,5.66
2024-03-04T05:14:20.735Z,5.68
2024-03-04T05:15:22.650Z,5.58
2024-03-04T05:16:24.404Z,5.59
2024-03-04T05:17:26.307Z,5.58
2024-03-04T05:18:28.139Z,5.60
2024-03-04T05:19:35.831Z,5.65
2024-03-04T05:20:50.299Z,5.68
2024-03-04T05:21:57.596Z,5.74
2024-03-04T05:22:59.638Z,5.68
2024-03-04T05:24:01.478Z,5.60
2024-03-04T05:25:03.372Z,5.59
2024-03-04T05:26:05.247Z,5.53
2024-03-04T05:27:07.050Z,5.55
2024-03-04T05:28:08.782Z,5.57
2024-03-04T05:29:10.859Z,5.51
2024-03-04T05:30:13.261Z,5.47
2024-03-04T05:31:15.026Z,5.50
2024-03-04T05:32:16.796Z,5.49
2024-03-04T05:33:18.664Z,5.51
2024-03-04T05:34:20.657Z,5.55
2024-03-04T05:35:22.587Z,5.62
2024-03-04T05:36:24.381Z,5.65
2024-03-04T05:37:26.197Z,5.71
2024-03-04T05:38:27.968Z,5.72
2024-03-04T05:39:33.247Z,5.72
2024-03-04T05:40:36.216Z,5.72
2024-03-04T05:41:41.133Z,5.73
2024-03-04T05:42:43.534Z,5.75
2024-03-04T05:43:45.318Z,5.76
2024-03-04T05:44:47.304Z,5.71
2024-03-04T05:45:49.000Z,5.62
2024-03-04T05:46:50.872Z,5.60
2024-03-04T05:47:52.871Z,5.60
2024-03-04T05:48:54.739Z,5.50
2024-03-04T05:49:56.518Z,5.47
2024-03-04T05:50:58.418Z,5.44
2024-03-04T05:52:00.872Z,5.39
2024-03-04T05:53:02.970Z,5.40
2024-03-04T05:54:04.737Z,5.42
2024-03-04T05:55:07.917Z,5.44
2024-03-04T05:56:10.217Z,5.45
2024-03-04T05:57:11.987Z,5.53
2024-03-04T05:58:13.792Z,5.53
2024-03-04T05:59:15.803Z,5.58
2024-03-04T06:00:17.813Z,5.63
2024-03-04T06:01:20.688Z,5.58
2024-03-04T06:02:22.644Z,5.59
2024-03-04T06:03:24.389Z,5.64
2024-03-04T06:04:26.182Z,5.63
2024-03-04T06:05:27.987Z,5.60
2024-03-04T06:06:29.739Z,5.66
2024-03-04T06:07:31.736Z,5.72
2024-03-04T06:08:34.512Z,5.69
2024-03-04T06:09:36.282Z,5.62
2024-03-04T06:10:38.332Z,5.69
2024-03-04T06:11:40.392Z,5.73
2024-03-04T06:12:42.803Z,5.80
2024-03-04T06:13:44.665Z,5.82
2024-03-04T06:14:46.681Z,5.81
2024-03-04T06:15:48.485Z,5.85
2024-03-04T06:16:51.053Z,5.89
2024-03-04T06:17:52.893Z,5.94
2024-03-04T06:18:54.763Z,5.98
2024-03-04T06:19:56.858Z,5.96
2024-03-04T06:21:00.877Z,6.02
2024-03-04T06:22:08.278Z,6.05
2024-03-04T06:23:14.394Z,6.00
2024-03-04T06:24:16.554Z,5.97
2024-03-04T06:25:18.394Z,5.95
2024-03-04T06:26:20.207Z,5.94
2024-03-04T06:27:22.054Z,5.95
2024-03-04T06:28:24.008Z,5.96
2024-03-04T06:29:25.791Z,6.03
2024-03-04T06:30:27.636Z,5.92
2024-03-04T06:31:29.463Z,5.87
2024-03-04T06:32:31.228Z,5.93
2024-03-04T06:33:44.403Z,5.97
2024-03-04T06:34:54.240Z,5.97
2024-03-04T06:35:56.041Z,6.01
2024-03-04T06:37:00.306Z,6.00
2024-03-04T06:38:02.075Z,6.00
2024-03-04T06:39:03.889Z,6.00
2024-03-04T06:40:05.983Z,5.99
2024-03-04T06:41:08.222Z,6.05
2024-03-04T06:42:10.144Z,6.06
2024-03-04T06:43:11.924Z,6.11
2024-03-04T06:44:13.814Z,6.13
2024-03-04T06:45:15.628Z,6.14
2024-03-04T06:46:17.347Z,6.12
2024-03-04T06:47:19.079Z,6.14
2024-03-04T06:48:21.297Z,6.18
2024-03-04T06:49:23.803Z,6.24
2024-03-04T06:50:25.629Z,6.23
2024-03-04T06:51:27.891Z,6.24
2024-03-04T06:52:29.735Z,6.31
2024-03-04T06:53:31.532Z,6.33
2024-03-04T06:54:33.460Z,6.32
2024-03-04T06:55:35.300Z,6.32
2024-03-04T06:56:37.587Z,6.39
2024-03-04T06:57:39.452Z,6.34
2024-03-04T06:58:41.394Z,6.29
2024-03-04T06:59:43.148Z,6.26
2024-03-04T07:00:45.603Z,6.32
2024-03-04T07:01:47.462Z,6.35
2024-03-04T07:02:49.300Z,6.38
2024-03-04T07:03:51.350Z,6.40
2024-03-04T07:04:53.277Z,6.39
2024-03-04T07:05:55.066Z,6.40
2024-03-04T07:06:56.785Z,6.44
2024-03-04T07:07:58.574Z,6.49
2024-03-04T07:09:00.385Z,6.55
2024-03-04T07:10:02.291Z,6.56
2024-03-04T07:11:05.432Z,6.58
2024-03-04T07:12:11.844Z,6.59
2024-03-04T07:13:13.882Z,6.61
2024-03-04T07:14:15.893Z,6.61
2024-03-04T07:15:17.813Z,6.62
2024-03-04T07:16:19.742Z,6.67
2024-03-04T07:17:21.517Z,6.71
2024-03-04T07:18:23.344Z,6.74
2024-03-04T07:19:25.463Z,6.73
2024-03-04T07:20:27.226Z,6.68
2024-03-04T07:21:29.047Z,6.69
2024-03-04T07:22:30.951Z,6.73
2024-03-04T07:23:32.722Z,6.74
2024-03-04T07:24:34.390Z,6.76
2024-03-04T07:25:36.240Z,6.81
2024-03-04T07:26:38.140Z,6.80
2024-03-04T07:27:39.974Z,6.80
2024-03-04T07:28:42.684Z,6.84
2024-03-04T07:29:48.918Z,6.87
2024-03-04T07:30:56.962Z,6.87
2024-03-04T07:31:58.897Z,6.90
2024-03-04T07:33:03.943Z,6.93
2024-03-04T07:34:05.718Z,6.97
2024-03-04T07:35:07.842Z,6.94
2024-03-04T07:36:15.465Z,6.94
2024-03-04T07:37:18.707Z,7.01
2024-03-04T07:38:21.137Z,7.06
2024-03-04T07:39:24.047Z,7.01
2024-03-04T07:40:25.909Z,7.04
2024-03-04T07:41:27.822Z,7.10
2024-03-04T07:42:29.732Z,7.14
2024-03-04T07:43:31.574Z,7.11
2024-03-04T07:44:38.557Z,7.14
2024-03-04T07:45:40.345Z,7.17
2024-03-04T07:46:42.959Z,7.22
2024-03-04T07:47:44.937Z,7.26
2024-03-04T07:48:46.695Z,7.31
2024-03-04T07:49:48.680Z,7.34
2024-03-04T07:50:50.538Z,7.37
2024-03-04T07:51:52.384Z,7.40
2024-03-04T07:52:54.143Z,7.45
2024-03-04T07:53:56.012Z,7.44
2024-03-04T07:54:57.807Z,7.44
2024-03-04T07:55:59.645Z,7.46
2024-03-04T07:57:10.297Z,7.50
2024-03-04T07:58:19.137Z,7.57
2024-03-04T07:59:20.989Z,7.62
2024-03-04T08:00:22.857Z,7.69
2024-03-04T08:01:24.770Z,7.77
2024-03-04T08:02:26.592Z,7.86
2024-03-04T08:03:28.370Z,7.96
2024-03-04T08:04:30.244Z,8.04
2024-03-04T08:05:32.458Z,8.06
2024-03-04T08:06:36.161Z,8.13
2024-03-04T08:07:41.031Z,8.18
2024-03-04T08:08:44.458Z,8.23
2024-03-04T08:09:46.359Z,8.19
2024-03-04T08:10:48.115Z,8.23
2024-03-04T08:11:49.995Z,8.29
2024-03-04T08:12:51.732Z,8.38
2024-03-04T08:13:53.572Z,8.47
2024-03-04T08:14:55.653Z,8.54
2024-03-04T08:15:57.800Z,8.61
2024-03-04T08:16:59.599Z,8.68
2024-03-04T08:18:01.832Z,8.75
2024-03-04T08:19:03.696Z,8.82
2024-03-04T08:20:14.868Z,8.86
2024-03-04T08:21:22.568Z,8.88
2024-03-04T08:22:24.645Z,8.93
2024-03-04T08:23:26.552Z,8.97
2024-03-04T08:24:28.302Z,9.06
2024-03-04T08:25:30.177Z,9.12
2024-03-04T08:26:32.035Z,9.17
2024-03-04T08:27:34.726Z,9.21
2024-03-04T08:28:36.582Z,9.24
2024-03-04T08:29:38.389Z,9.27
2024-03-04T08:30:40.520Z,9.26
2024-03-04T08:31:42.355Z,9.25
2024-03-04T08:32:47.026Z,9.27
2024-03-04T08:33:48.933Z,9.29
2024-03-04T08:34:51.362Z,9.32
2024-03-04T08:35:53.125Z,9.36
2024-03-04T08:36:55.496Z,9.37
2024-03-04T08:37:57.460Z,9.39
2024-03-04T08:38:59.388Z,9.43
2024-03-04T08:40:05.025Z,9.48
2024-03-04T08:41:06.806Z,9.53
2024-03-04T08:42:08.533Z,9.51
2024-03-04T08:43:10.566Z,9.52
2024-03-04T08:44:12.647Z,9.49
2024-03-04T08:45:14.584Z,9.48
2024-03-04T08:46:17.030Z,9.45
2024-03-04T08:47:19.120Z,9.45
2024-03-04T08:48:20.888Z,9.43
2024-03-04T08:49:22.766Z,9.43
2024-03-04T08:50:24.615Z,9.45
2024-03-04T08:51:26.689Z,9.46
2024-03-04T08:52:29.279Z,9.53
2024-03-04T08:53:31.096Z,9.58
2024-03-04T08:54:33.283Z,9.70
2024-03-04T08:55:35.103Z,9.80
2024-03-04T08:56:37.105Z,9.89
2024-03-04T08:57:38.867Z,9.92
2024-03-04T08:58:41.285Z,9.95
2024-03-04T08:59:43.179Z,9.94
2024-03-04T09:00:45.046Z,9.97
2024-03-04T09:01:46.918Z,10.04
2024-03-04T09:02:48.656Z,10.11
2024-03-04T09:03:50.433Z,10.13
2024-03-04T09:04:52.276Z,10.16
2024-03-04T09:05:54.371Z,10.21
2024-03-04T09:06:56.450Z,10.29
2024-03-04T09:08:01.460Z,10.35
2024-03-04T09:09:03.388Z,10.41
2024-03-04T09:10:05.987Z,10.46
2024-03-04T09:11:07.951Z,10.52
2024-03-04T09:12:09.789Z,10.55
2024-03-04T09:13:11.637Z,10.58
2024-03-04T09:14:13.633Z,10.60
2024-03-04T09:15:17.442Z,10.63
2024-03-04T09:16:20.260Z,10.66
2024-03-04T09:17:22.650Z,10.72
2024-03-04T09:18:24.485Z,10.78
2024-03-04T09:19:26.241Z,10.80
2024-03-04T09:20:28.047Z,10.87
2024-03-04T09:21:29.842Z,10.90
2024-03-04T09:22:31.732Z,10.96
2024-03-04T09:23:33.604Z,11.00
2024-03-04T09:24:35.397Z,11.08
2024-03-04T09:25:40.212Z,11.15
2024-03-04T09:26:47.528Z,11.22
2024-03-04T09:27:49.345Z,11.30
2024-03-04T09:28:52.146Z,11.37
2024-03-04T09:29:54.357Z,11.47
2024-03-04T09:30:56.124Z,11.54
2024-03-04T09:31:58.097Z,11.61
2024-03-04T09:33:00.001Z,11.70
2024-03-04T09:34:02.052Z,11.75
2024-03-04T09:35:06.423Z,11.81
2024-03-04T09:36:08.237Z,11.85
2024-03-04T09:37:10.418Z,11.89
2024-03-04T09:38:12.585Z,11.91
2024-03-04T09:39:15.113Z,11.93
2024-03-04T09:40:17.584Z,12.02
2024-03-04T09:41:20.016Z,12.13
2024-03-04T09:42:21.874Z,12.26
2024-03-04T09:43:27.722Z,12.34
2024-03-04T09:44:31.535Z,12.46
2024-03-04T09:45:33.969Z,12.57
2024-03-04T09:46:39.841Z,12.68
2024-03-04T09:47:42.450Z,12.76
2024-03-04T09:48:46.716Z,12.85
2024-03-04T09:49:48.580Z,12.98
2024-03-04T09:50:52.375Z,13.11
2024-03-04T09:51:54.310Z,13.24
2024-03-04T09:52:57.987Z,13.33
2024-03-04T09:54:01.425Z,13.42
2024-03-04T09:55:03.616Z,13.52
2024-03-04T09:56:05.823Z,13.59
2024-03-04T09:57:09.110Z,13.69
2024-03-04T09:58:11.086Z,13.87
2024-03-04T09:59:12.886Z,13.93
2024-03-04T10:00:17.626Z,14.03
2024-03-04T10:01:21.041Z,14.18
2024-03-04T10:02:24.420Z,14.32
2024-03-04T10:03:26.453Z,14.44
2024-03-04T10:04:30.268Z,14.53
2024-03-04T10:05:32.620Z,14.65
2024-03-04T10:06:34.464Z,14.74
2024-03-04T10:07:37.661Z,14.85
2024-03-04T10:08:39.460Z,14.97
2024-03-04T10:09:41.234Z,15.08
2024-03-04T10:10:43.294Z,15.24
2024-03-04T10:11:45.839Z,15.40
2024-03-04T10:12:48.790Z,15.53
2024-03-04T10:13:51.487Z,15.64
2024-03-04T10:15:08.505Z,15.75
2024-03-04T10:16:14.787Z,15.85
2024-03-04T10:17:17.312Z,15.92
2024-03-04T10:18:19.215Z,15.98
2024-03-04T10:19:21.535Z,16.06
2024-03-04T10:20:25.270Z,16.10
2024-03-04T10:21:36.593Z,16.14
2024-03-04T10:22:41.562Z,16.26
2024-03-04T10:23:43.780Z,16.35
2024-03-04T10:24:45.505Z,16.45
2024-03-04T10:25:48.264Z,16.56
2024-03-04T10:26:50.189Z,16.56
2024-03-04T10:27:52.402Z,16.63
2024-03-04T10:28:54.291Z,16.72
2024-03-04T10:30:09.893Z,16.80
2024-03-04T10:31:12.580Z,16.93
2024-03-04T10:32:18.050Z,16.90
2024-03-04T10:33:20.300Z,16.89
2024-03-04T10:34:22.803Z,16.95
2024-03-04T10:35:29.435Z,17.04
2024-03-04T10:36:33.293Z,17.13
2024-03-04T10:37:35.436Z,17.23
2024-03-04T10:38:38.160Z,17.21
2024-03-04T10:39:40.193Z,17.28
2024-03-04T10:40:43.121Z,17.29
2024-03-04T10:41:47.529Z,17.36
2024-03-04T10:42:49.336Z,17.48
2024-03-04T10:43:53.340Z,17.56
2024-03-04T10:44:55.485Z,17.58
2024-03-04T10:45:57.297Z,17.65
2024-03-04T10:47:02.612Z,17.74
2024-03-04T10:48:07.451Z,17.84
2024-03-04T10:49:09.549Z,17.83
2024-03-04T10:50:11.734Z,17.79
2024-03-04T10:51:15.351Z,17.82
2024-03-04T10:52:17.406Z,17.87
2024-03-04T10:53:19.617Z,17.86
2024-03-04T10:54:23.702Z,17.88
2024-03-04T10:55:26.227Z,17.94
2024-03-04T10:56:30.573Z,18.00
2024-03-04T10:57:33.598Z,18.05
2024-03-04T10:58:36.064Z,18.10
2024-03-04T10:59:38.742Z,18.16
2024-03-04T11:00:41.825Z,18.20
2024-03-04T11:01:44.198Z,18.25
2024-03-04T11:02:52.591Z,18.32
2024-03-04T11:04:03.631Z,18.48
2024-03-04T11:05:07.441Z,18.54
2024-03-04T11:06:11.034Z,18.49
2024-03-04T11:07:13.707Z,18.54
2024-03-04T11:08:29.006Z,18.58
2024-03-04T11:09:32.070Z,18.71
2024-03-04T11:10:43.412Z,18.79
2024-03-04T11:11:49.386Z,18.91
2024-03-04T11:12:57.909Z,18.69
2024-03-04T11:14:16.066Z,18.75
2024-03-04T11:15:19.036Z,18.87
2024-03-04T11:16:29.107Z,18.95
2024-03-04T11:17:35.524Z,19.18
2024-03-04T11:18:41.996Z,19.31
2024-03-04T11:19:44.066Z,19.26
2024-03-04T11:20:47.997Z,19.29
2024-03-04T11:21:50.726Z,19.41
2024-03-04T11:22:54.573Z,19.46
2024-03-04T11:23:56.993Z,19.45
2024-03-04T11:24:59.739Z,19.60
2024-03-04T11:26:02.132Z,19.69
2024-03-04T11:27:04.351Z,19.67
2024-03-04T11:28:06.905Z,19.73
2024-03-04T11:29:09.409Z,19.66
2024-03-04T11:30:11.716Z,19.72
2024-03-04T11:31:26.754Z,19.88
2024-03-04T11:32:30.575Z,20.05
2024-03-04T11:33:39.970Z,20.16
2024-03-04T11:35:01.853Z,20.22
2024-03-04T11:36:04.175Z,20.18
2024-03-04T11:37:06.059Z,20.26
2024-03-04T11:38:08.472Z,20.38
2024-03-04T11:39:23.364Z,20.52
2024-03-04T11:40:26.195Z,20.55
2024-03-04T11:41:38.430Z,20.51
2024-03-04T11:42:40.375Z,20.49
2024-03-04T11:43:42.837Z,20.64
2024-03-04T11:44:46.696Z,20.73
2024-03-04T11:45:48.471Z,20.81
2024-03-04T11:46:50.358Z,20.87
2024-03-04T11:47:52.160Z,21.01
2024-03-04T11:48:57.562Z,21.07
2024-03-04T11:49:59.464Z,21.02
2024-03-04T11:51:01.420Z,21.09
2024-03-04T11:52:07.173Z,21.18
2024-03-04T11:53:28.357Z,21.35
2024-03-04T11:54:36.841Z,21.52
2024-03-04T11:55:38.786Z,21.67
2024-03-04T11:56:42.224Z,21.51
2024-03-04T11:57:44.268Z,21.49
2024-03-04T11:58:48.049Z,21.47
2024-03-04T11:59:59.445Z,21.52
2024-03-04T12:01:08.823Z,21.55
2024-03-04T12:02:19.021Z,21.61
2024-03-04T12:03:20.914Z,21.60
2024-03-04T12:04:30.842Z,21.44
2024-03-04T12:05:32.820Z,21.45
2024-03-04T12:06:35.766Z,21.51
2024-03-04T12:07:38.127Z,21.64
2024-03-04T12:08:52.483Z,21.78
2024-03-04T12:10:13.202Z,21.89
2024-03-04T12:11:20.400Z,21.96
2024-03-04T12:12:22.625Z,21.97
2024-03-04T12:13:24.495Z,22.05
2024-03-04T12:14:26.402Z,22.07
2024-03-04T12:15:29.418Z,22.22
2024-03-04T12:16:32.388Z,22.25
2024-03-04T12:17:34.217Z,22.23
2024-03-04T12:18:37.492Z,22.14
2024-03-04T12:19:52.120Z,22.05
2024-03-04T12:20:54.745Z,21.98
2024-03-04T12:21:56.655Z,22.01
2024-03-04T12:22:58.506Z,22.02
2024-03-04T12:24:00.357Z,22.03
2024-03-04T12:25:03.787Z,22.06
2024-03-04T12:26:15.552Z,22.14
2024-03-04T12:27:21.781Z,22.24
2024-03-04T12:28:23.638Z,22.27
2024-03-04T12:29:27.294Z,22.32
2024-03-04T12:30:29.636Z,22.26
2024-03-04T12:31:32.066Z,22.28
2024-03-04T12:32:34.030Z,22.30
2024-03-04T12:33:35.997Z,22.25
2024-03-04T12:34:37.797Z,22.28
2024-03-04T12:35:40.164Z,22.30
2024-03-04T12:36:44.885Z,22.42
2024-03-04T12:37:53.474Z,22.47
2024-03-04T12:38:58.002Z,22.51
2024-03-04T12:39:59.859Z,22.46
2024-03-04T12:41:01.643Z,22.56
2024-03-04T12:42:04.449Z,22.48
2024-03-04T12:43:07.012Z,22.23
2024-03-04T12:44:09.759Z,22.11
2024-03-04T12:45:11.748Z,22.20
2024-03-04T12:46:13.558Z,22.35
2024-03-04T12:47:17.290Z,22.32
2024-03-04T12:48:20.202Z,22.32
2024-03-04T12:49:22.120Z,22.33
2024-03-04T12:50:25.043Z,22.40
2024-03-04T12:51:26.826Z,22.30
2024-03-04T12:52:28.896Z,22.12
2024-03-04T12:53:30.623Z,21.95
2024-03-04T12:54:33.827Z,22.01
2024-03-04T12:55:36.976Z,22.01
2024-03-04T12:56:38.786Z,21.92
2024-03-04T12:57:40.609Z,21.76
2024-03-04T12:58:43.709Z,21.63
2024-03-04T12:59:45.850Z,21.54
2024-03-04T13:00:49.804Z,21.63
2024-03-04T13:01:52.063Z,21.70
2024-03-04T13:02:54.225Z,21.68
2024-03-04T13:03:57.776Z,21.64
2024-03-04T13:04:59.696Z,21.63
2024-03-04T13:06:01.537Z,21.57
2024-03-04T13:07:03.888Z,21.46
2024-03-04T13:08:08.105Z,21.47
2024-03-04T13:09:13.957Z,21.41
2024-03-04T13:10:17.145Z,21.24
2024-03-04T13:11:19.090Z,21.27
2024-03-04T13:12:20.883Z,21.28
2024-03-04T13:13:22.889Z,21.33
2024-03-04T13:14:24.981Z,21.33
2024-03-04T13:15:26.859Z,21.38
2024-03-04T13:16:30.628Z,21.14
2024-03-04T13:17:32.604Z,21.13
2024-03-04T13:18:34.393Z,21.32
2024-03-04T13:19:36.379Z,21.49
2024-03-04T13:20:41.113Z,21.61
2024-03-04T13:21:43.228Z,21.58
2024-03-04T13:22:46.530Z,21.65
2024-03-04T13:23:50.415Z,21.58
2024-03-04T13:24:53.597Z,21.48
2024-03-04T13:25:55.461Z,21.44
2024-03-04T13:26:57.352Z,21.59
2024-03-04T13:27:59.215Z,21.64
2024-03-04T13:29:00.946Z,21.53
2024-03-04T13:30:10.356Z,21.45
2024-03-04T13:31:12.147Z,21.31
2024-03-04T13:32:13.970Z,21.09
2024-03-04T13:33:15.772Z,21.12
2024-03-04T13:34:17.738Z,21.15
2024-03-04T13:35:19.846Z,21.12
2024-03-04T13:36:21.873Z,21.05
2024-03-04T13:37:23.637Z,20.95
2024-03-04T13:38:28.532Z,20.88
2024-03-04T13:39:30.269Z,20.84
2024-03-04T13:40:32.085Z,20.81
2024-03-04T13:41:36.988Z,20.90
2024-03-04T13:42:38.964Z,20.76
2024-03-04T13:43:40.858Z,20.84
2024-03-04T13:44:43.876Z,20.88
2024-03-04T13:45:45.735Z,20.84
2024-03-04T13:46:47.593Z,20.83
2024-03-04T13:47:49.537Z,20.83
2024-03-04T13:48:51.465Z,20.85